sensor_id;sensor_type;location;lat;lon;timestamp;temperature;humidity
62853;DHT22;49205;44.868;38.140;2022-08-01T11:00:21;33.90;55.30
62853;DHT22;49205;44.868;38.140;2022-08-01T11:02:58;33.50;56.60
62853;DHT22;49205;44.868;38.140;2022-08-01T11:05:33;33.30;55.60
62853;DHT22;49205;44.868;38.140;2022-08-01T11:08:10;33.20;55.20
62853;DHT22;49205;44.868;38.140;2022-08-01T11:10:41;33.00;54.70
62853;DHT22;49205;44.868;38.140;2022-08-01T11:13:14;32.90;54.80
62853;DHT22;49205;44.868;38.140;2022-08-01T11:15:44;32.80;55.30
62853;DHT22;49205;44.868;38.140;2022-08-01T11:18:30;32.80;55.60
62853;DHT22;49205;44.868;38.140;2022-08-01T11:21:01;32.80;55.20
62853;DHT22;49205;44.868;38.140;2022-08-01T11:23:33;32.90;55.90
62853;DHT22;49205;44.868;38.140;2022-08-01T11:28:35;33.20;55.80
62853;DHT22;49205;44.868;38.140;2022-08-01T11:33:48;33.40;55.20
62853;DHT22;49205;44.868;38.140;2022-08-01T11:36:18;33.50;55.50
62853;DHT22;49205;44.868;38.140;2022-08-01T11:41:39;33.60;54.60
62853;DHT22;49205;44.868;38.140;2022-08-01T11:44:11;33.70;54.50
62853;DHT22;49205;44.868;38.140;2022-08-01T11:49:32;33.90;54.50
62853;DHT22;49205;44.868;38.140;2022-08-01T11:52:09;33.90;54.40
62853;DHT22;49205;44.868;38.140;2022-08-01T11:54:44;34.00;54.60
62853;DHT22;49205;44.868;38.140;2022-08-01T11:57:18;34.10;54.30
62853;DHT22;49205;44.868;38.140;2022-08-01T11:59:51;34.20;54.00
62853;DHT22;49205;44.868;38.140;2022-08-01T12:07:31;34.20;53.50
62853;DHT22;49205;44.868;38.140;2022-08-01T12:12:48;34.10;53.70
62853;DHT22;49205;44.868;38.140;2022-08-01T12:15:13;34.10;54.20
62853;DHT22;49205;44.868;38.140;2022-08-01T12:17:44;34.10;54.50
62853;DHT22;49205;44.868;38.140;2022-08-01T12:20:15;34.10;53.80
62853;DHT22;49205;44.868;38.140;2022-08-01T12:22:45;34.00;53.50
62853;DHT22;49205;44.868;38.140;2022-08-01T12:25:16;34.00;53.40
62853;DHT22;49205;44.868;38.140;2022-08-01T12:27:47;33.90;53.20
62853;DHT22;49205;44.868;38.140;2022-08-01T12:30:20;33.80;53.10
62853;DHT22;49205;44.868;38.140;2022-08-01T12:33:09;33.70;53.20
62853;DHT22;49205;44.868;38.140;2022-08-01T12:35:37;33.60;53.20
62853;DHT22;49205;44.868;38.140;2022-08-01T12:38:20;33.60;53.20
62853;DHT22;49205;44.868;38.140;2022-08-01T12:40:55;33.60;53.30
62853;DHT22;49205;44.868;38.140;2022-08-01T12:43:24;33.60;53.40
62853;DHT22;49205;44.868;38.140;2022-08-01T12:45:55;33.50;53.30
62853;DHT22;49205;44.868;38.140;2022-08-01T12:48:25;33.40;53.50
62853;DHT22;49205;44.868;38.140;2022-08-01T12:50:55;33.40;53.40
62853;DHT22;49205;44.868;38.140;2022-08-01T12:53:25;33.40;53.40
62853;DHT22;49205;44.868;38.140;2022-08-01T12:55:56;33.40;53.90
62853;DHT22;49205;44.868;38.140;2022-08-01T12:58:32;33.40;53.90
62853;DHT22;49205;44.868;38.140;2022-08-01T13:01:11;33.30;54.10
62853;DHT22;49205;44.868;38.140;2022-08-01T13:03:37;33.30;54.10
62853;DHT22;49205;44.868;38.140;2022-08-01T13:06:13;33.30;52.60
62853;DHT22;49205;44.868;38.140;2022-08-01T13:08:43;33.20;52.00
62853;DHT22;49205;44.868;38.140;2022-08-01T13:11:14;33.10;52.00
62853;DHT22;49205;44.868;38.140;2022-08-01T13:13:48;33.00;52.70
62853;DHT22;49205;44.868;38.140;2022-08-01T13:16:19;32.90;53.00
62853;DHT22;49205;44.868;38.140;2022-08-01T13:18:50;32.80;53.00
62853;DHT22;49205;44.868;38.140;2022-08-01T13:21:27;32.70;53.10
62853;DHT22;49205;44.868;38.140;2022-08-01T13:24:12;32.60;53.40
62853;DHT22;49205;44.868;38.140;2022-08-01T13:26:44;32.60;54.00
62853;DHT22;49205;44.868;38.140;2022-08-01T13:29:16;32.50;54.30
62853;DHT22;49205;44.868;38.140;2022-08-01T13:31:46;32.50;54.40
62853;DHT22;49205;44.868;38.140;2022-08-01T13:34:15;32.40;54.40
62853;DHT22;49205;44.868;38.140;2022-08-01T13:36:45;32.40;54.60
62853;DHT22;49205;44.868;38.140;2022-08-01T13:39:15;32.30;54.80
62853;DHT22;49205;44.868;38.140;2022-08-01T13:42:03;32.30;55.00
62853;DHT22;49205;44.868;38.140;2022-08-01T13:44:32;32.30;55.10
62853;DHT22;49205;44.868;38.140;2022-08-01T13:47:02;32.20;55.30
62853;DHT22;49205;44.868;38.140;2022-08-01T13:49:32;32.20;55.70
62853;DHT22;49205;44.868;38.140;2022-08-01T13:52:01;32.20;56.00
62853;DHT22;49205;44.868;38.140;2022-08-01T13:54:31;32.10;56.30
62853;DHT22;49205;44.868;38.140;2022-08-01T13:57:01;32.10;56.30
62853;DHT22;49205;44.868;38.140;2022-08-01T13:59:30;32.10;56.30
62853;DHT22;49205;44.868;38.140;2022-08-01T14:01:59;32.00;56.30
62853;DHT22;49205;44.868;38.140;2022-08-01T14:04:29;32.00;56.40
62853;DHT22;49205;44.868;38.140;2022-08-01T14:06:58;32.00;56.60
62853;DHT22;49205;44.868;38.140;2022-08-01T14:09:28;32.00;56.90
62853;DHT22;49205;44.868;38.140;2022-08-01T14:11:57;32.00;56.60
62853;DHT22;49205;44.868;38.140;2022-08-01T14:14:27;32.00;56.60
62853;DHT22;49205;44.868;38.140;2022-08-01T14:16:56;31.90;56.40
62853;DHT22;49205;44.868;38.140;2022-08-01T14:19:26;31.90;56.50
62853;DHT22;49205;44.868;38.140;2022-08-01T14:21:55;31.90;56.70
62853;DHT22;49205;44.868;38.140;2022-08-01T14:24:24;31.80;56.80
62853;DHT22;49205;44.868;38.140;2022-08-01T14:26:54;31.80;57.00
62853;DHT22;49205;44.868;38.140;2022-08-01T14:29:24;31.80;57.10
62853;DHT22;49205;44.868;38.140;2022-08-01T14:31:53;31.80;57.30
62853;DHT22;49205;44.868;38.140;2022-08-01T14:34:23;31.80;57.70
62853;DHT22;49205;44.868;38.140;2022-08-01T14:36:53;31.80;57.90
62853;DHT22;49205;44.868;38.140;2022-08-01T14:39:22;31.80;58.00
62853;DHT22;49205;44.868;38.140;2022-08-01T14:41:52;31.80;58.10
62853;DHT22;49205;44.868;38.140;2022-08-01T14:44:21;31.80;58.10
62853;DHT22;49205;44.868;38.140;2022-08-01T14:46:51;31.80;58.00
62853;DHT22;49205;44.868;38.140;2022-08-01T14:49:20;31.80;58.10
62853;DHT22;49205;44.868;38.140;2022-08-01T14:51:49;31.90;58.30
62853;DHT22;49205;44.868;38.140;2022-08-01T14:54:19;31.90;58.70
62853;DHT22;49205;44.868;38.140;2022-08-01T14:56:48;31.90;59.20
62853;DHT22;49205;44.868;38.140;2022-08-01T14:59:19;31.90;59.60
62853;DHT22;49205;44.868;38.140;2022-08-01T15:01:49;31.90;59.90
62853;DHT22;49205;44.868;38.140;2022-08-01T15:04:18;31.90;60.10
62853;DHT22;49205;44.868;38.140;2022-08-01T15:06:48;31.80;60.20
62853;DHT22;49205;44.868;38.140;2022-08-01T15:09:17;31.80;60.30
62853;DHT22;49205;44.868;38.140;2022-08-01T15:11:47;31.80;60.40
62853;DHT22;49205;44.868;38.140;2022-08-01T15:14:16;31.80;60.60
62853;DHT22;49205;44.868;38.140;2022-08-01T15:17:04;31.70;60.70
62853;DHT22;49205;44.868;38.140;2022-08-01T15:19:35;31.70;60.60
62853;DHT22;49205;44.868;38.140;2022-08-01T15:22:05;31.70;60.70
62853;DHT22;49205;44.868;38.140;2022-08-01T15:24:34;31.70;60.80
62853;DHT22;49205;44.868;38.140;2022-08-01T15:27:04;31.60;60.80
62853;DHT22;49205;44.868;38.140;2022-08-01T15:29:34;31.60;60.70
62853;DHT22;49205;44.868;38.140;2022-08-01T15:32:04;31.50;60.70
62853;DHT22;49205;44.868;38.140;2022-08-01T15:34:34;31.50;60.90
62853;DHT22;49205;44.868;38.140;2022-08-01T15:37:04;31.50;61.00
62853;DHT22;49205;44.868;38.140;2022-08-01T15:39:40;31.60;61.20
62853;DHT22;49205;44.868;38.140;2022-08-01T15:42:16;31.60;61.30
62853;DHT22;49205;44.868;38.140;2022-08-01T15:44:45;31.60;61.30
62853;DHT22;49205;44.868;38.140;2022-08-01T15:47:15;31.60;61.50
62853;DHT22;49205;44.868;38.140;2022-08-01T15:49:44;31.60;61.40
62853;DHT22;49205;44.868;38.140;2022-08-01T15:52:13;31.60;61.40
62853;DHT22;49205;44.868;38.140;2022-08-01T15:54:43;31.60;61.50
62853;DHT22;49205;44.868;38.140;2022-08-01T15:57:12;31.60;61.50
62853;DHT22;49205;44.868;38.140;2022-08-01T15:59:41;31.50;61.50
62853;DHT22;49205;44.868;38.140;2022-08-01T16:02:10;31.50;61.70
62853;DHT22;49205;44.868;38.140;2022-08-01T16:04:41;31.40;61.90
62853;DHT22;49205;44.868;38.140;2022-08-01T16:07:10;31.40;62.20
62853;DHT22;49205;44.868;38.140;2022-08-01T16:09:40;31.40;62.20
62853;DHT22;49205;44.868;38.140;2022-08-01T16:12:10;31.40;62.30
62853;DHT22;49205;44.868;38.140;2022-08-01T16:14:39;31.40;62.20
62853;DHT22;49205;44.868;38.140;2022-08-01T16:17:09;31.40;62.20
62853;DHT22;49205;44.868;38.140;2022-08-01T16:19:38;31.30;62.40
62853;DHT22;49205;44.868;38.140;2022-08-01T16:22:07;31.20;62.60
62853;DHT22;49205;44.868;38.140;2022-08-01T16:24:37;31.20;62.90
62853;DHT22;49205;44.868;38.140;2022-08-01T16:27:06;31.10;63.10
62853;DHT22;49205;44.868;38.140;2022-08-01T16:29:36;31.00;63.30
62853;DHT22;49205;44.868;38.140;2022-08-01T16:32:05;31.00;63.70
62853;DHT22;49205;44.868;38.140;2022-08-01T16:34:35;30.90;64.10
62853;DHT22;49205;44.868;38.140;2022-08-01T16:37:05;30.80;64.50
62853;DHT22;49205;44.868;38.140;2022-08-01T16:39:34;30.70;65.00
62853;DHT22;49205;44.868;38.140;2022-08-01T16:42:03;30.60;65.70
62853;DHT22;49205;44.868;38.140;2022-08-01T16:44:33;30.40;66.00
62853;DHT22;49205;44.868;38.140;2022-08-01T16:47:03;30.30;66.50
62853;DHT22;49205;44.868;38.140;2022-08-01T16:49:32;30.20;66.80
62853;DHT22;49205;44.868;38.140;2022-08-01T16:52:02;30.10;67.10
62853;DHT22;49205;44.868;38.140;2022-08-01T16:54:31;30.10;67.60
62853;DHT22;49205;44.868;38.140;2022-08-01T16:57:01;30.00;67.80
62853;DHT22;49205;44.868;38.140;2022-08-01T16:59:30;30.00;68.00
62853;DHT22;49205;44.868;38.140;2022-08-01T17:02:00;29.90;68.20
62853;DHT22;49205;44.868;38.140;2022-08-01T17:04:30;29.90;68.10
62853;DHT22;49205;44.868;38.140;2022-08-01T17:06:59;29.80;68.40
62853;DHT22;49205;44.868;38.140;2022-08-01T17:09:28;29.80;68.60
62853;DHT22;49205;44.868;38.140;2022-08-01T17:11:58;29.80;68.70
62853;DHT22;49205;44.868;38.140;2022-08-01T17:14:27;29.80;68.70
62853;DHT22;49205;44.868;38.140;2022-08-01T17:16:58;29.70;68.60
62853;DHT22;49205;44.868;38.140;2022-08-01T17:19:27;29.70;68.60
62853;DHT22;49205;44.868;38.140;2022-08-01T17:21:57;29.70;68.80
62853;DHT22;49205;44.868;38.140;2022-08-01T17:24:26;29.60;68.70
62853;DHT22;49205;44.868;38.140;2022-08-01T17:26:55;29.60;68.90
62853;DHT22;49205;44.868;38.140;2022-08-01T17:29:25;29.50;69.00
62853;DHT22;49205;44.868;38.140;2022-08-01T17:31:54;29.50;69.30
62853;DHT22;49205;44.868;38.140;2022-08-01T17:34:24;29.40;69.60
62853;DHT22;49205;44.868;38.140;2022-08-01T17:36:53;29.40;69.80
62853;DHT22;49205;44.868;38.140;2022-08-01T17:39:23;29.30;69.90
62853;DHT22;49205;44.868;38.140;2022-08-01T17:41:52;29.20;69.90
62853;DHT22;49205;44.868;38.140;2022-08-01T17:44:21;29.20;70.10
62853;DHT22;49205;44.868;38.140;2022-08-01T17:46:52;29.20;70.30
62853;DHT22;49205;44.868;38.140;2022-08-01T17:49:22;29.10;70.40
62853;DHT22;49205;44.868;38.140;2022-08-01T17:51:52;29.10;70.50
62853;DHT22;49205;44.868;38.140;2022-08-01T17:54:22;29.10;70.70
62853;DHT22;49205;44.868;38.140;2022-08-01T17:56:51;29.10;70.60
62853;DHT22;49205;44.868;38.140;2022-08-01T17:59:21;29.10;70.70
62853;DHT22;49205;44.868;38.140;2022-08-01T18:01:50;29.10;70.60
62853;DHT22;49205;44.868;38.140;2022-08-01T18:04:20;29.10;71.30
62853;DHT22;49205;44.868;38.140;2022-08-01T18:06:56;29.00;70.80
62853;DHT22;49205;44.868;38.140;2022-08-01T18:09:26;29.00;71.10
62853;DHT22;49205;44.868;38.140;2022-08-01T18:11:57;28.90;71.20
62853;DHT22;49205;44.868;38.140;2022-08-01T18:14:27;28.80;71.50
62853;DHT22;49205;44.868;38.140;2022-08-01T18:16:57;28.60;71.70
62853;DHT22;49205;44.868;38.140;2022-08-01T18:19:26;28.60;72.00
62853;DHT22;49205;44.868;38.140;2022-08-01T18:21:56;28.60;72.20
62853;DHT22;49205;44.868;38.140;2022-08-01T18:24:25;28.50;72.30
62853;DHT22;49205;44.868;38.140;2022-08-01T18:26:54;28.50;72.30
62853;DHT22;49205;44.868;38.140;2022-08-01T18:29:25;28.50;72.50
62853;DHT22;49205;44.868;38.140;2022-08-01T18:31:55;28.40;72.60
62853;DHT22;49205;44.868;38.140;2022-08-01T18:34:26;28.40;72.90
62853;DHT22;49205;44.868;38.140;2022-08-01T18:36:56;28.30;72.80
62853;DHT22;49205;44.868;38.140;2022-08-01T18:39:26;28.30;72.80
62853;DHT22;49205;44.868;38.140;2022-08-01T18:41:55;28.30;72.60
62853;DHT22;49205;44.868;38.140;2022-08-01T18:44:26;28.30;72.50
62853;DHT22;49205;44.868;38.140;2022-08-01T18:46:57;28.30;72.50
62853;DHT22;49205;44.868;38.140;2022-08-01T18:49:26;28.30;72.50
62853;DHT22;49205;44.868;38.140;2022-08-01T18:51:55;28.20;72.40
62853;DHT22;49205;44.868;38.140;2022-08-01T18:54:25;28.20;72.40
62853;DHT22;49205;44.868;38.140;2022-08-01T18:56:55;28.20;72.50
62853;DHT22;49205;44.868;38.140;2022-08-01T18:59:24;28.20;72.40
62853;DHT22;49205;44.868;38.140;2022-08-01T19:01:53;28.10;72.50
62853;DHT22;49205;44.868;38.140;2022-08-01T19:04:22;28.10;72.60
62853;DHT22;49205;44.868;38.140;2022-08-01T19:06:53;28.10;72.60
62853;DHT22;49205;44.868;38.140;2022-08-01T19:09:22;28.10;72.60
62853;DHT22;49205;44.868;38.140;2022-08-01T19:11:52;28.10;72.80
62853;DHT22;49205;44.868;38.140;2022-08-01T19:14:21;28.10;72.90
62853;DHT22;49205;44.868;38.140;2022-08-01T19:16:50;28.10;73.20
62853;DHT22;49205;44.868;38.140;2022-08-01T19:19:20;28.10;73.30
62853;DHT22;49205;44.868;38.140;2022-08-01T19:21:49;28.00;73.50
62853;DHT22;49205;44.868;38.140;2022-08-01T19:24:19;28.00;73.60
62853;DHT22;49205;44.868;38.140;2022-08-01T19:26:51;28.00;73.80
62853;DHT22;49205;44.868;38.140;2022-08-01T19:29:22;27.90;73.70
62853;DHT22;49205;44.868;38.140;2022-08-01T19:31:52;27.90;73.80
62853;DHT22;49205;44.868;38.140;2022-08-01T19:34:22;27.90;74.00
62853;DHT22;49205;44.868;38.140;2022-08-01T19:36:55;27.80;74.10
62853;DHT22;49205;44.868;38.140;2022-08-01T19:39:25;27.80;74.30
62853;DHT22;49205;44.868;38.140;2022-08-01T19:41:56;27.70;74.40
62853;DHT22;49205;44.868;38.140;2022-08-01T19:44:26;27.70;74.60
62853;DHT22;49205;44.868;38.140;2022-08-01T19:46:56;27.60;74.70
62853;DHT22;49205;44.868;38.140;2022-08-01T19:49:26;27.60;74.80
62853;DHT22;49205;44.868;38.140;2022-08-01T19:52:00;27.60;75.00
62853;DHT22;49205;44.868;38.140;2022-08-01T19:54:37;27.60;75.10
62853;DHT22;49205;44.868;38.140;2022-08-01T19:57:07;27.60;75.20
62853;DHT22;49205;44.868;38.140;2022-08-01T19:59:38;27.60;75.30
62853;DHT22;49205;44.868;38.140;2022-08-01T20:02:08;27.60;75.50
62853;DHT22;49205;44.868;38.140;2022-08-01T20:04:37;27.50;75.70
62853;DHT22;49205;44.868;38.140;2022-08-01T20:07:07;27.50;75.70
62853;DHT22;49205;44.868;38.140;2022-08-01T20:09:39;27.50;76.00
62853;DHT22;49205;44.868;38.140;2022-08-01T20:12:08;27.40;75.90
62853;DHT22;49205;44.868;38.140;2022-08-01T20:14:39;27.50;75.90
62853;DHT22;49205;44.868;38.140;2022-08-01T20:17:10;27.40;75.90
62853;DHT22;49205;44.868;38.140;2022-08-01T20:19:39;27.50;75.80
62853;DHT22;49205;44.868;38.140;2022-08-01T20:22:08;27.50;75.80
62853;DHT22;49205;44.868;38.140;2022-08-01T20:24:40;27.50;75.70
62853;DHT22;49205;44.868;38.140;2022-08-01T20:27:11;27.50;75.50
62853;DHT22;49205;44.868;38.140;2022-08-01T20:29:45;27.50;75.50
62853;DHT22;49205;44.868;38.140;2022-08-01T20:35:44;27.40;75.30
62853;DHT22;49205;44.868;38.140;2022-08-01T20:38:15;27.40;75.30
62853;DHT22;49205;44.868;38.140;2022-08-01T20:40:47;27.40;75.30
62853;DHT22;49205;44.868;38.140;2022-08-01T20:43:18;27.40;75.40
62853;DHT22;49205;44.868;38.140;2022-08-01T20:45:49;27.30;75.40
62853;DHT22;49205;44.868;38.140;2022-08-01T20:48:18;27.30;75.40
62853;DHT22;49205;44.868;38.140;2022-08-01T20:50:48;27.30;75.40
62853;DHT22;49205;44.868;38.140;2022-08-01T20:53:36;27.30;76.00
62853;DHT22;49205;44.868;38.140;2022-08-01T20:56:24;27.30;75.40
62853;DHT22;49205;44.868;38.140;2022-08-01T21:02:05;27.20;75.40
62853;DHT22;49205;44.868;38.140;2022-08-01T21:07:21;27.20;75.40
62853;DHT22;49205;44.868;38.140;2022-08-01T21:12:43;27.20;75.60
62853;DHT22;49205;44.868;38.140;2022-08-01T21:18:11;27.20;75.90
62853;DHT22;49205;44.868;38.140;2022-08-01T21:20:45;27.20;75.90
62853;DHT22;49205;44.868;38.140;2022-08-01T21:26:03;27.10;76.10
62853;DHT22;49205;44.868;38.140;2022-08-01T21:28:33;27.10;76.10
62853;DHT22;49205;44.868;38.140;2022-08-01T21:31:03;27.10;76.10
62853;DHT22;49205;44.868;38.140;2022-08-01T21:33:33;27.20;76.20
62853;DHT22;49205;44.868;38.140;2022-08-01T21:36:04;27.20;76.20
62853;DHT22;49205;44.868;38.140;2022-08-01T21:38:35;27.20;76.20
62853;DHT22;49205;44.868;38.140;2022-08-01T21:41:07;27.20;76.30
62853;DHT22;49205;44.868;38.140;2022-08-01T21:43:37;27.20;76.50
62853;DHT22;49205;44.868;38.140;2022-08-01T21:46:06;27.10;76.50
62853;DHT22;49205;44.868;38.140;2022-08-01T21:48:37;27.10;76.60
62853;DHT22;49205;44.868;38.140;2022-08-01T22:02:46;27.20;76.90
62853;DHT22;49205;44.868;38.140;2022-08-01T22:05:14;27.10;76.70
62853;DHT22;49205;44.868;38.140;2022-08-01T22:07:52;27.10;76.80
62853;DHT22;49205;44.868;38.140;2022-08-01T22:10:24;27.10;77.00
62853;DHT22;49205;44.868;38.140;2022-08-01T22:12:53;27.10;76.90
62853;DHT22;49205;44.868;38.140;2022-08-01T22:15:24;27.10;77.00
62853;DHT22;49205;44.868;38.140;2022-08-01T22:17:54;27.10;77.00
62853;DHT22;49205;44.868;38.140;2022-08-01T22:20:26;27.10;77.00
62853;DHT22;49205;44.868;38.140;2022-08-01T22:22:56;27.10;77.10
62853;DHT22;49205;44.868;38.140;2022-08-01T22:25:25;27.10;77.10
62853;DHT22;49205;44.868;38.140;2022-08-01T22:27:56;27.10;77.10
62853;DHT22;49205;44.868;38.140;2022-08-01T22:30:26;27.00;77.10
62853;DHT22;49205;44.868;38.140;2022-08-01T22:32:57;27.00;77.10
62853;DHT22;49205;44.868;38.140;2022-08-01T22:35:28;27.00;77.10
62853;DHT22;49205;44.868;38.140;2022-08-01T22:37:57;27.00;77.10
62853;DHT22;49205;44.868;38.140;2022-08-01T22:40:27;27.00;77.20
62853;DHT22;49205;44.868;38.140;2022-08-01T22:42:59;27.00;77.10
62853;DHT22;49205;44.868;38.140;2022-08-01T22:45:38;27.00;77.10
62853;DHT22;49205;44.868;38.140;2022-08-01T22:48:18;27.00;77.10
62853;DHT22;49205;44.868;38.140;2022-08-01T22:51:04;27.00;77.00
62853;DHT22;49205;44.868;38.140;2022-08-01T22:53:52;27.00;77.00
62853;DHT22;49205;44.868;38.140;2022-08-01T22:56:21;27.00;77.00
62853;DHT22;49205;44.868;38.140;2022-08-01T22:58:51;26.90;76.90
62853;DHT22;49205;44.868;38.140;2022-08-01T23:01:21;26.90;77.00
62853;DHT22;49205;44.868;38.140;2022-08-01T23:03:53;26.90;77.00
62853;DHT22;49205;44.868;38.140;2022-08-01T23:06:35;26.90;77.00
62853;DHT22;49205;44.868;38.140;2022-08-01T23:08:57;26.90;77.00
62853;DHT22;49205;44.868;38.140;2022-08-01T23:11:29;26.90;77.00
62853;DHT22;49205;44.868;38.140;2022-08-01T23:13:58;26.90;77.00
62853;DHT22;49205;44.868;38.140;2022-08-01T23:16:29;26.90;77.00
62853;DHT22;49205;44.868;38.140;2022-08-01T23:18:59;26.90;77.10
62853;DHT22;49205;44.868;38.140;2022-08-01T23:21:29;26.90;77.00
62853;DHT22;49205;44.868;38.140;2022-08-01T23:24:00;26.90;77.00
62853;DHT22;49205;44.868;38.140;2022-08-01T23:26:30;26.90;77.00
62853;DHT22;49205;44.868;38.140;2022-08-01T23:29:00;26.90;77.00
62853;DHT22;49205;44.868;38.140;2022-08-01T23:31:30;26.90;77.00
62853;DHT22;49205;44.868;38.140;2022-08-01T23:33:59;26.90;77.00
62853;DHT22;49205;44.868;38.140;2022-08-01T23:36:28;26.90;77.10
62853;DHT22;49205;44.868;38.140;2022-08-01T23:38:58;26.90;77.10
62853;DHT22;49205;44.868;38.140;2022-08-01T23:41:28;26.80;77.10
62853;DHT22;49205;44.868;38.140;2022-08-01T23:43:57;26.80;77.20
62853;DHT22;49205;44.868;38.140;2022-08-01T23:46:26;26.80;77.20
62853;DHT22;49205;44.868;38.140;2022-08-01T23:48:55;26.80;77.30
62853;DHT22;49205;44.868;38.140;2022-08-01T23:51:24;26.80;77.30
62853;DHT22;49205;44.868;38.140;2022-08-01T23:53:54;26.80;77.30
62853;DHT22;49205;44.868;38.140;2022-08-01T23:56:24;26.80;77.30
62853;DHT22;49205;44.868;38.140;2022-08-01T23:58:53;26.80;77.40
